sensor_id;sensor_type;location;lat;lon;timestamp;P1;durP1;ratioP1;P2;durP2;ratioP2
22441;SDS011;11388;54.456;9.752;2023-03-01T00:01:58;93.82;;;10.90;;
22441;SDS011;11388;54.456;9.752;2023-03-01T00:04:23;100.25;;;11.50;;
22441;SDS011;11388;54.456;9.752;2023-03-01T00:06:49;36.08;;;9.30;;
22441;SDS011;11388;54.456;9.752;2023-03-01T00:09:16;43.55;;;9.43;;
22441;SDS011;11388;54.456;9.752;2023-03-01T00:11:42;112.40;;;11.90;;
22441;SDS011;11388;54.456;9.752;2023-03-01T00:14:08;43.50;;;9.82;;
22441;SDS011;11388;54.456;9.752;2023-03-01T00:16:39;51.45;;;9.32;;
22441;SDS011;11388;54.456;9.752;2023-03-01T00:19:09;12.23;;;9.05;;
22441;SDS011;11388;54.456;9.752;2023-03-01T00:21:37;13.00;;;9.27;;
22441;SDS011;11388;54.456;9.752;2023-03-01T00:24:03;12.27;;;9.20;;
22441;SDS011;11388;54.456;9.752;2023-03-01T00:26:29;15.98;;;9.00;;
22441;SDS011;11388;54.456;9.752;2023-03-01T00:28:56;50.92;;;9.75;;
22441;SDS011;11388;54.456;9.752;2023-03-01T00:31:23;214.77;;;13.70;;
22441;SDS011;11388;54.456;9.752;2023-03-01T00:33:54;362.58;;;17.00;;
22441;SDS011;11388;54.456;9.752;2023-03-01T00:36:22;124.60;;;10.80;;
22441;SDS011;11388;54.456;9.752;2023-03-01T00:38:49;46.60;;;9.98;;
22441;SDS011;11388;54.456;9.752;2023-03-01T00:41:15;20.40;;;8.65;;
22441;SDS011;11388;54.456;9.752;2023-03-01T00:43:42;213.65;;;13.18;;
22441;SDS011;11388;54.456;9.752;2023-03-01T00:46:11;274.05;;;14.90;;
22441;SDS011;11388;54.456;9.752;2023-03-01T00:48:38;173.25;;;11.30;;
22441;SDS011;11388;54.456;9.752;2023-03-01T00:51:09;161.18;;;12.07;;
22441;SDS011;11388;54.456;9.752;2023-03-01T00:53:41;111.45;;;11.05;;
22441;SDS011;11388;54.456;9.752;2023-03-01T00:56:07;160.38;;;11.65;;
22441;SDS011;11388;54.456;9.752;2023-03-01T00:58:35;153.52;;;10.70;;
22441;SDS011;11388;54.456;9.752;2023-03-01T01:01:06;92.70;;;10.32;;
22441;SDS011;11388;54.456;9.752;2023-03-01T01:03:42;61.08;;;8.45;;
22441;SDS011;11388;54.456;9.752;2023-03-01T01:06:22;145.90;;;10.30;;
22441;SDS011;11388;54.456;9.752;2023-03-01T01:08:55;178.10;;;11.05;;
22441;SDS011;11388;54.456;9.752;2023-03-01T01:11:22;172.30;;;9.32;;
22441;SDS011;11388;54.456;9.752;2023-03-01T01:13:49;195.02;;;11.35;;
22441;SDS011;11388;54.456;9.752;2023-03-01T01:16:16;170.20;;;10.30;;
22441;SDS011;11388;54.456;9.752;2023-03-01T01:18:44;139.50;;;9.70;;
22441;SDS011;11388;54.456;9.752;2023-03-01T01:21:11;230.32;;;12.30;;
22441;SDS011;11388;54.456;9.752;2023-03-01T01:23:38;45.47;;;6.90;;
22441;SDS011;11388;54.456;9.752;2023-03-01T01:26:15;118.88;;;8.82;;
22441;SDS011;11388;54.456;9.752;2023-03-01T01:28:44;103.63;;;10.25;;
22441;SDS011;11388;54.456;9.752;2023-03-01T01:31:10;194.70;;;11.10;;
22441;SDS011;11388;54.456;9.752;2023-03-01T01:33:36;185.20;;;10.68;;
22441;SDS011;11388;54.456;9.752;2023-03-01T01:36:02;227.95;;;13.68;;
22441;SDS011;11388;54.456;9.752;2023-03-01T01:38:29;214.85;;;12.10;;
22441;SDS011;11388;54.456;9.752;2023-03-01T01:40:55;143.57;;;10.90;;
22441;SDS011;11388;54.456;9.752;2023-03-01T01:43:25;279.10;;;15.55;;
22441;SDS011;11388;54.456;9.752;2023-03-01T01:45:59;291.63;;;18.33;;
22441;SDS011;11388;54.456;9.752;2023-03-01T01:48:32;134.02;;;10.63;;
22441;SDS011;11388;54.456;9.752;2023-03-01T01:51:07;159.25;;;11.13;;
22441;SDS011;11388;54.456;9.752;2023-03-01T01:53:41;337.60;;;17.77;;
22441;SDS011;11388;54.456;9.752;2023-03-01T01:56:10;228.77;;;13.45;;
22441;SDS011;11388;54.456;9.752;2023-03-01T01:58:37;237.98;;;14.07;;
22441;SDS011;11388;54.456;9.752;2023-03-01T02:01:04;155.23;;;12.20;;
22441;SDS011;11388;54.456;9.752;2023-03-01T02:03:31;329.38;;;15.55;;
22441;SDS011;11388;54.456;9.752;2023-03-01T02:06:06;143.60;;;10.55;;
22441;SDS011;11388;54.456;9.752;2023-03-01T02:08:44;88.20;;;9.82;;
22441;SDS011;11388;54.456;9.752;2023-03-01T02:11:12;96.97;;;9.80;;
22441;SDS011;11388;54.456;9.752;2023-03-01T02:13:39;38.33;;;7.57;;
22441;SDS011;11388;54.456;9.752;2023-03-01T02:16:10;57.30;;;8.77;;
22441;SDS011;11388;54.456;9.752;2023-03-01T02:18:38;93.28;;;9.95;;
22441;SDS011;11388;54.456;9.752;2023-03-01T02:23:46;202.77;;;14.20;;
22441;SDS011;11388;54.456;9.752;2023-03-01T02:26:18;144.10;;;11.52;;
22441;SDS011;11388;54.456;9.752;2023-03-01T02:28:49;163.25;;;14.57;;
22441;SDS011;11388;54.456;9.752;2023-03-01T02:31:16;157.13;;;11.95;;
22441;SDS011;11388;54.456;9.752;2023-03-01T02:34:02;76.95;;;8.85;;
22441;SDS011;11388;54.456;9.752;2023-03-01T02:36:37;56.40;;;8.90;;
22441;SDS011;11388;54.456;9.752;2023-03-01T02:39:06;25.70;;;8.45;;
22441;SDS011;11388;54.456;9.752;2023-03-01T02:41:39;16.40;;;7.53;;
22441;SDS011;11388;54.456;9.752;2023-03-01T02:44:07;18.38;;;7.95;;
22441;SDS011;11388;54.456;9.752;2023-03-01T02:46:33;34.63;;;8.57;;
22441;SDS011;11388;54.456;9.752;2023-03-01T02:49:29;30.95;;;8.60;;
22441;SDS011;11388;54.456;9.752;2023-03-01T02:52:08;14.40;;;7.32;;
22441;SDS011;11388;54.456;9.752;2023-03-01T02:54:56;22.15;;;8.48;;
22441;SDS011;11388;54.456;9.752;2023-03-01T02:57:30;36.45;;;8.32;;
22441;SDS011;11388;54.456;9.752;2023-03-01T02:59:57;50.30;;;9.15;;
22441;SDS011;11388;54.456;9.752;2023-03-01T03:02:32;60.28;;;9.35;;
22441;SDS011;11388;54.456;9.752;2023-03-01T03:05:05;29.38;;;8.20;;
22441;SDS011;11388;54.456;9.752;2023-03-01T03:07:33;65.55;;;9.85;;
22441;SDS011;11388;54.456;9.752;2023-03-01T03:10:01;45.72;;;9.23;;
22441;SDS011;11388;54.456;9.752;2023-03-01T03:12:28;21.70;;;7.78;;
22441;SDS011;11388;54.456;9.752;2023-03-01T03:14:53;43.38;;;8.82;;
22441;SDS011;11388;54.456;9.752;2023-03-01T03:17:19;61.47;;;9.05;;
22441;SDS011;11388;54.456;9.752;2023-03-01T03:19:45;35.28;;;8.63;;
22441;SDS011;11388;54.456;9.752;2023-03-01T03:22:11;82.40;;;8.50;;
22441;SDS011;11388;54.456;9.752;2023-03-01T03:24:37;38.53;;;7.70;;
22441;SDS011;11388;54.456;9.752;2023-03-01T03:27:03;107.18;;;9.50;;
22441;SDS011;11388;54.456;9.752;2023-03-01T03:29:29;221.02;;;12.85;;
22441;SDS011;11388;54.456;9.752;2023-03-01T03:31:55;25.33;;;7.38;;
22441;SDS011;11388;54.456;9.752;2023-03-01T03:34:21;114.18;;;10.07;;
22441;SDS011;11388;54.456;9.752;2023-03-01T03:36:47;91.68;;;8.70;;
22441;SDS011;11388;54.456;9.752;2023-03-01T03:39:12;42.92;;;8.30;;
22441;SDS011;11388;54.456;9.752;2023-03-01T03:41:38;34.33;;;7.63;;
22441;SDS011;11388;54.456;9.752;2023-03-01T03:44:04;52.38;;;7.80;;
22441;SDS011;11388;54.456;9.752;2023-03-01T03:46:29;48.55;;;8.18;;
22441;SDS011;11388;54.456;9.752;2023-03-01T03:48:55;44.50;;;7.93;;
22441;SDS011;11388;54.456;9.752;2023-03-01T03:51:20;63.13;;;8.65;;
22441;SDS011;11388;54.456;9.752;2023-03-01T03:53:47;33.53;;;7.32;;
22441;SDS011;11388;54.456;9.752;2023-03-01T03:56:13;52.47;;;8.48;;
22441;SDS011;11388;54.456;9.752;2023-03-01T03:58:39;128.85;;;9.85;;
22441;SDS011;11388;54.456;9.752;2023-03-01T04:01:05;207.18;;;13.32;;
22441;SDS011;11388;54.456;9.752;2023-03-01T04:03:31;260.40;;;12.90;;
22441;SDS011;11388;54.456;9.752;2023-03-01T04:05:58;152.55;;;10.82;;
22441;SDS011;11388;54.456;9.752;2023-03-01T04:08:25;75.93;;;8.75;;
22441;SDS011;11388;54.456;9.752;2023-03-01T04:10:53;121.53;;;10.07;;
22441;SDS011;11388;54.456;9.752;2023-03-01T04:13:23;35.50;;;7.68;;
22441;SDS011;11388;54.456;9.752;2023-03-01T04:15:50;39.67;;;8.13;;
22441;SDS011;11388;54.456;9.752;2023-03-01T04:18:17;155.43;;;10.43;;
22441;SDS011;11388;54.456;9.752;2023-03-01T04:20:45;124.45;;;8.98;;
22441;SDS011;11388;54.456;9.752;2023-03-01T04:23:15;56.70;;;8.18;;
22441;SDS011;11388;54.456;9.752;2023-03-01T04:25:45;214.60;;;12.13;;
22441;SDS011;11388;54.456;9.752;2023-03-01T04:28:24;55.08;;;8.70;;
22441;SDS011;11388;54.456;9.752;2023-03-01T04:30:50;90.07;;;8.20;;
22441;SDS011;11388;54.456;9.752;2023-03-01T04:33:16;93.60;;;8.57;;
22441;SDS011;11388;54.456;9.752;2023-03-01T04:35:43;27.35;;;6.85;;
22441;SDS011;11388;54.456;9.752;2023-03-01T04:38:08;88.40;;;8.50;;
22441;SDS011;11388;54.456;9.752;2023-03-01T04:40:34;82.68;;;8.63;;
22441;SDS011;11388;54.456;9.752;2023-03-01T04:43:00;51.00;;;7.13;;
22441;SDS011;11388;54.456;9.752;2023-03-01T04:45:26;123.78;;;9.90;;
22441;SDS011;11388;54.456;9.752;2023-03-01T04:47:52;59.65;;;8.45;;
22441;SDS011;11388;54.456;9.752;2023-03-01T04:50:18;33.75;;;7.32;;
22441;SDS011;11388;54.456;9.752;2023-03-01T04:52:45;249.40;;;12.45;;
22441;SDS011;11388;54.456;9.752;2023-03-01T04:55:12;140.10;;;9.70;;
22441;SDS011;11388;54.456;9.752;2023-03-01T04:57:38;61.00;;;7.45;;
22441;SDS011;11388;54.456;9.752;2023-03-01T05:00:05;125.63;;;9.25;;
22441;SDS011;11388;54.456;9.752;2023-03-01T05:02:56;21.40;;;6.68;;
22441;SDS011;11388;54.456;9.752;2023-03-01T05:07:56;263.98;;;13.15;;
22441;SDS011;11388;54.456;9.752;2023-03-01T05:10:23;91.53;;;8.50;;
22441;SDS011;11388;54.456;9.752;2023-03-01T05:12:50;246.15;;;11.35;;
22441;SDS011;11388;54.456;9.752;2023-03-01T05:15:17;202.55;;;11.88;;
22441;SDS011;11388;54.456;9.752;2023-03-01T05:17:43;117.05;;;9.00;;
22441;SDS011;11388;54.456;9.752;2023-03-01T05:20:09;140.90;;;9.90;;
22441;SDS011;11388;54.456;9.752;2023-03-01T05:22:35;60.90;;;7.28;;
22441;SDS011;11388;54.456;9.752;2023-03-01T05:25:01;32.42;;;6.40;;
22441;SDS011;11388;54.456;9.752;2023-03-01T05:27:27;101.53;;;8.35;;
22441;SDS011;11388;54.456;9.752;2023-03-01T05:29:54;265.27;;;13.30;;
22441;SDS011;11388;54.456;9.752;2023-03-01T05:32:20;294.73;;;14.88;;
22441;SDS011;11388;54.456;9.752;2023-03-01T05:34:46;257.15;;;13.93;;
22441;SDS011;11388;54.456;9.752;2023-03-01T05:37:12;82.40;;;7.97;;
22441;SDS011;11388;54.456;9.752;2023-03-01T05:39:38;124.20;;;8.38;;
22441;SDS011;11388;54.456;9.752;2023-03-01T05:42:04;91.90;;;7.88;;
22441;SDS011;11388;54.456;9.752;2023-03-01T05:44:30;155.23;;;10.05;;
22441;SDS011;11388;54.456;9.752;2023-03-01T05:46:56;183.73;;;11.43;;
22441;SDS011;11388;54.456;9.752;2023-03-01T05:49:22;223.90;;;12.30;;
22441;SDS011;11388;54.456;9.752;2023-03-01T05:51:51;169.00;;;10.13;;
22441;SDS011;11388;54.456;9.752;2023-03-01T05:54:21;204.98;;;12.40;;
22441;SDS011;11388;54.456;9.752;2023-03-01T05:56:47;167.50;;;12.20;;
22441;SDS011;11388;54.456;9.752;2023-03-01T05:59:12;124.43;;;9.70;;
22441;SDS011;11388;54.456;9.752;2023-03-01T06:01:40;130.50;;;9.27;;
22441;SDS011;11388;54.456;9.752;2023-03-01T06:04:06;115.43;;;10.23;;
22441;SDS011;11388;54.456;9.752;2023-03-01T06:06:35;130.10;;;8.85;;
22441;SDS011;11388;54.456;9.752;2023-03-01T06:09:04;163.32;;;11.23;;
22441;SDS011;11388;54.456;9.752;2023-03-01T06:11:33;201.15;;;12.13;;
22441;SDS011;11388;54.456;9.752;2023-03-01T06:13:59;64.82;;;7.20;;
22441;SDS011;11388;54.456;9.752;2023-03-01T06:16:25;115.05;;;9.55;;
22441;SDS011;11388;54.456;9.752;2023-03-01T06:18:51;189.40;;;12.05;;
22441;SDS011;11388;54.456;9.752;2023-03-01T06:21:16;149.68;;;11.05;;
22441;SDS011;11388;54.456;9.752;2023-03-01T06:23:42;179.45;;;12.18;;
22441;SDS011;11388;54.456;9.752;2023-03-01T06:26:08;147.43;;;10.43;;
22441;SDS011;11388;54.456;9.752;2023-03-01T06:28:34;131.88;;;10.65;;
22441;SDS011;11388;54.456;9.752;2023-03-01T06:31:00;63.55;;;7.72;;
22441;SDS011;11388;54.456;9.752;2023-03-01T06:33:26;42.28;;;7.07;;
22441;SDS011;11388;54.456;9.752;2023-03-01T06:35:55;108.25;;;10.05;;
22441;SDS011;11388;54.456;9.752;2023-03-01T06:38:24;211.93;;;12.00;;
22441;SDS011;11388;54.456;9.752;2023-03-01T06:40:53;135.50;;;11.27;;
22441;SDS011;11388;54.456;9.752;2023-03-01T06:43:20;176.43;;;12.55;;
22441;SDS011;11388;54.456;9.752;2023-03-01T06:45:46;212.55;;;11.25;;
22441;SDS011;11388;54.456;9.752;2023-03-01T06:48:11;79.53;;;7.50;;
22441;SDS011;11388;54.456;9.752;2023-03-01T06:50:37;45.72;;;6.97;;
22441;SDS011;11388;54.456;9.752;2023-03-01T06:53:03;181.35;;;9.00;;
22441;SDS011;11388;54.456;9.752;2023-03-01T06:55:29;119.53;;;8.50;;
22441;SDS011;11388;54.456;9.752;2023-03-01T06:57:56;104.10;;;8.20;;
22441;SDS011;11388;54.456;9.752;2023-03-01T07:00:26;54.13;;;7.00;;
22441;SDS011;11388;54.456;9.752;2023-03-01T07:02:52;23.70;;;6.60;;
22441;SDS011;11388;54.456;9.752;2023-03-01T07:05:18;44.40;;;6.80;;
22441;SDS011;11388;54.456;9.752;2023-03-01T07:07:44;91.22;;;8.35;;
22441;SDS011;11388;54.456;9.752;2023-03-01T07:10:10;86.05;;;8.18;;
22441;SDS011;11388;54.456;9.752;2023-03-01T07:12:36;51.55;;;7.40;;
22441;SDS011;11388;54.456;9.752;2023-03-01T07:15:02;62.85;;;6.97;;
22441;SDS011;11388;54.456;9.752;2023-03-01T07:17:29;33.45;;;6.18;;
22441;SDS011;11388;54.456;9.752;2023-03-01T07:19:54;152.77;;;9.27;;
22441;SDS011;11388;54.456;9.752;2023-03-01T07:22:21;21.77;;;5.78;;
22441;SDS011;11388;54.456;9.752;2023-03-01T07:24:46;113.40;;;8.30;;
22441;SDS011;11388;54.456;9.752;2023-03-01T07:27:12;35.20;;;6.18;;
22441;SDS011;11388;54.456;9.752;2023-03-01T07:29:38;34.30;;;6.10;;
22441;SDS011;11388;54.456;9.752;2023-03-01T07:32:04;13.60;;;5.30;;
22441;SDS011;11388;54.456;9.752;2023-03-01T07:34:31;30.48;;;6.10;;
22441;SDS011;11388;54.456;9.752;2023-03-01T07:36:57;25.85;;;5.65;;
22441;SDS011;11388;54.456;9.752;2023-03-01T07:39:22;99.70;;;8.57;;
22441;SDS011;11388;54.456;9.752;2023-03-01T07:41:48;33.10;;;5.63;;
22441;SDS011;11388;54.456;9.752;2023-03-01T07:44:15;43.03;;;5.95;;
22441;SDS011;11388;54.456;9.752;2023-03-01T07:46:41;37.30;;;5.28;;
22441;SDS011;11388;54.456;9.752;2023-03-01T07:49:07;63.35;;;6.43;;
22441;SDS011;11388;54.456;9.752;2023-03-01T07:51:32;66.75;;;7.47;;
22441;SDS011;11388;54.456;9.752;2023-03-01T07:53:58;83.00;;;7.32;;
22441;SDS011;11388;54.456;9.752;2023-03-01T07:56:24;14.15;;;4.90;;
22441;SDS011;11388;54.456;9.752;2023-03-01T07:58:49;15.77;;;4.72;;
22441;SDS011;11388;54.456;9.752;2023-03-01T08:01:19;24.48;;;5.35;;
22441;SDS011;11388;54.456;9.752;2023-03-01T08:03:47;7.63;;;4.20;;
22441;SDS011;11388;54.456;9.752;2023-03-01T08:06:14;14.45;;;4.50;;
22441;SDS011;11388;54.456;9.752;2023-03-01T08:08:40;68.10;;;6.95;;
22441;SDS011;11388;54.456;9.752;2023-03-01T08:11:07;110.72;;;7.93;;
22441;SDS011;11388;54.456;9.752;2023-03-01T08:13:35;88.18;;;8.93;;
22441;SDS011;11388;54.456;9.752;2023-03-01T08:16:11;187.02;;;9.27;;
22441;SDS011;11388;54.456;9.752;2023-03-01T08:18:38;287.15;;;11.60;;
22441;SDS011;11388;54.456;9.752;2023-03-01T08:21:05;25.52;;;5.20;;
22441;SDS011;11388;54.456;9.752;2023-03-01T08:23:31;26.33;;;5.78;;
22441;SDS011;11388;54.456;9.752;2023-03-01T08:28:34;46.47;;;5.70;;
22441;SDS011;11388;54.456;9.752;2023-03-01T08:30:59;106.68;;;7.93;;
22441;SDS011;11388;54.456;9.752;2023-03-01T08:33:25;206.38;;;10.48;;
22441;SDS011;11388;54.456;9.752;2023-03-01T08:35:51;164.70;;;12.82;;
22441;SDS011;11388;54.456;9.752;2023-03-01T08:38:16;107.78;;;7.32;;
22441;SDS011;11388;54.456;9.752;2023-03-01T08:40:42;70.43;;;6.97;;
22441;SDS011;11388;54.456;9.752;2023-03-01T08:43:08;52.05;;;7.63;;
22441;SDS011;11388;54.456;9.752;2023-03-01T08:45:34;234.20;;;12.07;;
22441;SDS011;11388;54.456;9.752;2023-03-01T08:47:59;23.30;;;5.00;;
22441;SDS011;11388;54.456;9.752;2023-03-01T08:50:25;115.28;;;8.18;;
22441;SDS011;11388;54.456;9.752;2023-03-01T08:52:51;53.03;;;6.78;;
22441;SDS011;11388;54.456;9.752;2023-03-01T08:55:16;56.22;;;7.05;;
22441;SDS011;11388;54.456;9.752;2023-03-01T08:57:42;33.38;;;5.30;;
22441;SDS011;11388;54.456;9.752;2023-03-01T09:00:09;83.15;;;7.07;;
22441;SDS011;11388;54.456;9.752;2023-03-01T09:02:39;9.07;;;5.70;;
22441;SDS011;11388;54.456;9.752;2023-03-01T09:05:05;23.90;;;5.10;;
22441;SDS011;11388;54.456;9.752;2023-03-01T09:07:31;6.15;;;4.13;;
22441;SDS011;11388;54.456;9.752;2023-03-01T09:09:57;5.60;;;4.60;;
22441;SDS011;11388;54.456;9.752;2023-03-01T09:12:22;6.38;;;4.45;;
22441;SDS011;11388;54.456;9.752;2023-03-01T09:14:49;18.80;;;10.52;;
22441;SDS011;11388;54.456;9.752;2023-03-01T09:17:15;31.92;;;18.92;;
22441;SDS011;11388;54.456;9.752;2023-03-01T09:19:41;12.82;;;5.22;;
22441;SDS011;11388;54.456;9.752;2023-03-01T09:22:06;16.13;;;8.68;;
22441;SDS011;11388;54.456;9.752;2023-03-01T09:24:32;11.25;;;5.07;;
22441;SDS011;11388;54.456;9.752;2023-03-01T09:26:58;95.20;;;7.32;;
22441;SDS011;11388;54.456;9.752;2023-03-01T09:29:24;12.05;;;7.30;;
22441;SDS011;11388;54.456;9.752;2023-03-01T09:31:50;5.18;;;4.30;;
22441;SDS011;11388;54.456;9.752;2023-03-01T09:34:19;5.57;;;4.60;;
22441;SDS011;11388;54.456;9.752;2023-03-01T09:36:48;4.85;;;4.00;;
22441;SDS011;11388;54.456;9.752;2023-03-01T09:39:15;4.82;;;3.80;;
22441;SDS011;11388;54.456;9.752;2023-03-01T09:47:05;5.18;;;3.95;;
22441;SDS011;11388;54.456;9.752;2023-03-01T09:49:39;6.18;;;4.13;;
22441;SDS011;11388;54.456;9.752;2023-03-01T09:54:46;7.97;;;4.65;;
22441;SDS011;11388;54.456;9.752;2023-03-01T09:57:19;4.93;;;3.97;;
22441;SDS011;11388;54.456;9.752;2023-03-01T10:00:16;22.48;;;6.35;;
22441;SDS011;11388;54.456;9.752;2023-03-01T10:03:21;9.73;;;7.18;;
22441;SDS011;11388;54.456;9.752;2023-03-01T10:10:43;7.20;;;4.55;;
22441;SDS011;11388;54.456;9.752;2023-03-01T10:13:15;5.88;;;4.40;;
22441;SDS011;11388;54.456;9.752;2023-03-01T10:15:56;4.60;;;3.78;;
22441;SDS011;11388;54.456;9.752;2023-03-01T10:18:27;5.35;;;4.28;;
22441;SDS011;11388;54.456;9.752;2023-03-01T10:21:01;6.57;;;4.60;;
22441;SDS011;11388;54.456;9.752;2023-03-01T10:23:33;5.65;;;4.47;;
22441;SDS011;11388;54.456;9.752;2023-03-01T10:29:10;6.53;;;4.90;;
22441;SDS011;11388;54.456;9.752;2023-03-01T10:31:47;6.22;;;4.80;;
22441;SDS011;11388;54.456;9.752;2023-03-01T10:36:44;6.47;;;5.05;;
22441;SDS011;11388;54.456;9.752;2023-03-01T10:39:14;6.93;;;5.15;;
22441;SDS011;11388;54.456;9.752;2023-03-01T10:41:54;7.82;;;4.88;;
22441;SDS011;11388;54.456;9.752;2023-03-01T10:44:48;5.93;;;4.78;;
22441;SDS011;11388;54.456;9.752;2023-03-01T10:47:18;6.93;;;5.40;;
22441;SDS011;11388;54.456;9.752;2023-03-01T10:49:51;5.97;;;4.60;;
22441;SDS011;11388;54.456;9.752;2023-03-01T10:52:20;5.88;;;4.80;;
22441;SDS011;11388;54.456;9.752;2023-03-01T10:54:56;5.75;;;4.68;;
22441;SDS011;11388;54.456;9.752;2023-03-01T10:57:27;6.50;;;4.55;;
22441;SDS011;11388;54.456;9.752;2023-03-01T11:00:15;6.72;;;4.72;;
22441;SDS011;11388;54.456;9.752;2023-03-01T11:05:35;6.20;;;4.50;;
22441;SDS011;11388;54.456;9.752;2023-03-01T11:08:01;5.03;;;4.20;;
22441;SDS011;11388;54.456;9.752;2023-03-01T11:10:32;5.45;;;4.63;;
22441;SDS011;11388;54.456;9.752;2023-03-01T11:13:18;5.97;;;4.60;;
22441;SDS011;11388;54.456;9.752;2023-03-01T11:16:00;5.05;;;4.28;;
22441;SDS011;11388;54.456;9.752;2023-03-01T11:18:29;4.88;;;4.13;;
22441;SDS011;11388;54.456;9.752;2023-03-01T11:20:56;5.40;;;4.30;;
22441;SDS011;11388;54.456;9.752;2023-03-01T11:23:25;6.38;;;4.88;;
22441;SDS011;11388;54.456;9.752;2023-03-01T11:25:56;6.13;;;4.90;;
22441;SDS011;11388;54.456;9.752;2023-03-01T11:28:25;5.55;;;4.68;;
22441;SDS011;11388;54.456;9.752;2023-03-01T11:36:00;6.05;;;4.60;;
22441;SDS011;11388;54.456;9.752;2023-03-01T11:38:27;6.47;;;4.93;;
22441;SDS011;11388;54.456;9.752;2023-03-01T11:40:58;6.72;;;4.72;;
22441;SDS011;11388;54.456;9.752;2023-03-01T11:43:36;5.93;;;4.80;;
22441;SDS011;11388;54.456;9.752;2023-03-01T12:06:06;6.55;;;5.40;;
22441;SDS011;11388;54.456;9.752;2023-03-01T12:14:15;7.18;;;5.72;;
22441;SDS011;11388;54.456;9.752;2023-03-01T12:30:51;6.55;;;5.40;;
22441;SDS011;11388;54.456;9.752;2023-03-01T12:36:28;7.05;;;5.35;;
22441;SDS011;11388;54.456;9.752;2023-03-01T12:39:51;6.18;;;5.10;;
22441;SDS011;11388;54.456;9.752;2023-03-01T12:51:14;6.43;;;5.07;;
22441;SDS011;11388;54.456;9.752;2023-03-01T12:53:49;6.60;;;4.93;;
22441;SDS011;11388;54.456;9.752;2023-03-01T12:56:19;5.72;;;4.88;;
22441;SDS011;11388;54.456;9.752;2023-03-01T13:04:07;5.90;;;4.63;;
22441;SDS011;11388;54.456;9.752;2023-03-01T13:11:49;6.22;;;4.75;;
22441;SDS011;11388;54.456;9.752;2023-03-01T13:16:48;7.63;;;5.65;;
22441;SDS011;11388;54.456;9.752;2023-03-01T13:19:21;7.68;;;6.05;;
22441;SDS011;11388;54.456;9.752;2023-03-01T13:21:49;6.93;;;5.80;;
22441;SDS011;11388;54.456;9.752;2023-03-01T13:32:25;7.85;;;5.20;;
22441;SDS011;11388;54.456;9.752;2023-03-01T13:34:57;6.40;;;4.90;;
22441;SDS011;11388;54.456;9.752;2023-03-01T13:37:32;7.15;;;5.43;;
22441;SDS011;11388;54.456;9.752;2023-03-01T13:40:01;7.18;;;5.40;;
22441;SDS011;11388;54.456;9.752;2023-03-01T13:42:34;7.60;;;5.43;;
22441;SDS011;11388;54.456;9.752;2023-03-01T13:45:02;9.40;;;5.22;;
22441;SDS011;11388;54.456;9.752;2023-03-01T13:47:38;9.35;;;5.82;;
22441;SDS011;11388;54.456;9.752;2023-03-01T13:50:04;8.80;;;5.15;;
22441;SDS011;11388;54.456;9.752;2023-03-01T13:54:57;7.15;;;5.40;;
22441;SDS011;11388;54.456;9.752;2023-03-01T13:57:25;6.78;;;5.10;;
22441;SDS011;11388;54.456;9.752;2023-03-01T13:59:55;6.25;;;4.72;;
22441;SDS011;11388;54.456;9.752;2023-03-01T14:02:21;7.53;;;5.25;;
22441;SDS011;11388;54.456;9.752;2023-03-01T14:04:55;7.40;;;5.13;;
22441;SDS011;11388;54.456;9.752;2023-03-01T14:07:23;7.03;;;4.97;;
22441;SDS011;11388;54.456;9.752;2023-03-01T14:10:04;5.95;;;4.72;;
22441;SDS011;11388;54.456;9.752;2023-03-01T14:15:25;6.00;;;4.80;;
22441;SDS011;11388;54.456;9.752;2023-03-01T14:20:26;5.50;;;4.75;;
22441;SDS011;11388;54.456;9.752;2023-03-01T14:22:55;5.95;;;4.72;;
22441;SDS011;11388;54.456;9.752;2023-03-01T14:27:58;7.32;;;5.07;;
22441;SDS011;11388;54.456;9.752;2023-03-01T14:33:01;5.95;;;4.80;;
22441;SDS011;11388;54.456;9.752;2023-03-01T14:35:33;6.32;;;4.95;;
22441;SDS011;11388;54.456;9.752;2023-03-01T14:38:00;6.38;;;5.20;;
22441;SDS011;11388;54.456;9.752;2023-03-01T14:40:28;7.90;;;5.65;;
22441;SDS011;11388;54.456;9.752;2023-03-01T14:42:57;6.25;;;5.05;;
22441;SDS011;11388;54.456;9.752;2023-03-01T14:45:25;7.43;;;5.63;;
22441;SDS011;11388;54.456;9.752;2023-03-01T14:47:52;9.52;;;6.32;;
22441;SDS011;11388;54.456;9.752;2023-03-01T14:52:52;9.73;;;7.20;;
22441;SDS011;11388;54.456;9.752;2023-03-01T14:55:29;8.85;;;7.15;;
22441;SDS011;11388;54.456;9.752;2023-03-01T14:58:04;10.00;;;7.93;;
22441;SDS011;11388;54.456;9.752;2023-03-01T15:00:31;11.90;;;9.20;;
22441;SDS011;11388;54.456;9.752;2023-03-01T15:03:07;10.95;;;9.00;;
22441;SDS011;11388;54.456;9.752;2023-03-01T15:05:38;12.15;;;8.60;;
22441;SDS011;11388;54.456;9.752;2023-03-01T15:08:05;12.13;;;8.50;;
22441;SDS011;11388;54.456;9.752;2023-03-01T15:10:32;10.50;;;8.40;;
22441;SDS011;11388;54.456;9.752;2023-03-01T15:13:10;11.25;;;8.25;;
22441;SDS011;11388;54.456;9.752;2023-03-01T15:15:45;11.35;;;8.52;;
22441;SDS011;11388;54.456;9.752;2023-03-01T15:18:16;11.68;;;8.15;;
22441;SDS011;11388;54.456;9.752;2023-03-01T15:20:44;11.68;;;8.82;;
22441;SDS011;11388;54.456;9.752;2023-03-01T15:23:27;12.90;;;9.20;;
22441;SDS011;11388;54.456;9.752;2023-03-01T15:25:55;13.55;;;9.45;;
22441;SDS011;11388;54.456;9.752;2023-03-01T15:28:29;12.13;;;9.70;;
22441;SDS011;11388;54.456;9.752;2023-03-01T15:31:01;14.45;;;10.90;;
22441;SDS011;11388;54.456;9.752;2023-03-01T15:33:32;13.88;;;10.27;;
22441;SDS011;11388;54.456;9.752;2023-03-01T15:36:00;12.07;;;9.70;;
22441;SDS011;11388;54.456;9.752;2023-03-01T15:38:33;12.27;;;9.90;;
22441;SDS011;11388;54.456;9.752;2023-03-01T15:41:05;16.80;;;10.77;;
22441;SDS011;11388;54.456;9.752;2023-03-01T15:43:47;14.32;;;10.75;;
22441;SDS011;11388;54.456;9.752;2023-03-01T15:46:34;12.82;;;10.70;;
22441;SDS011;11388;54.456;9.752;2023-03-01T15:49:05;14.95;;;12.18;;
22441;SDS011;11388;54.456;9.752;2023-03-01T15:51:55;14.80;;;10.68;;
22441;SDS011;11388;54.456;9.752;2023-03-01T15:54:22;15.18;;;12.02;;
22441;SDS011;11388;54.456;9.752;2023-03-01T15:56:50;15.50;;;11.57;;
22441;SDS011;11388;54.456;9.752;2023-03-01T15:59:16;16.17;;;12.18;;
22441;SDS011;11388;54.456;9.752;2023-03-01T16:01:42;16.67;;;12.35;;
22441;SDS011;11388;54.456;9.752;2023-03-01T16:04:12;16.63;;;11.40;;
22441;SDS011;11388;54.456;9.752;2023-03-01T16:06:45;16.85;;;12.75;;
22441;SDS011;11388;54.456;9.752;2023-03-01T16:09:12;15.32;;;11.95;;
22441;SDS011;11388;54.456;9.752;2023-03-01T16:11:37;16.55;;;12.20;;
22441;SDS011;11388;54.456;9.752;2023-03-01T16:14:05;16.77;;;12.38;;
22441;SDS011;11388;54.456;9.752;2023-03-01T16:16:31;17.23;;;12.63;;
22441;SDS011;11388;54.456;9.752;2023-03-01T16:18:56;16.17;;;12.30;;
22441;SDS011;11388;54.456;9.752;2023-03-01T16:21:23;16.52;;;12.60;;
22441;SDS011;11388;54.456;9.752;2023-03-01T16:23:50;16.52;;;12.40;;
22441;SDS011;11388;54.456;9.752;2023-03-01T16:26:16;17.88;;;12.80;;
22441;SDS011;11388;54.456;9.752;2023-03-01T16:28:45;17.48;;;12.57;;
22441;SDS011;11388;54.456;9.752;2023-03-01T16:31:11;16.48;;;12.25;;
22441;SDS011;11388;54.456;9.752;2023-03-01T16:33:39;17.92;;;12.80;;
22441;SDS011;11388;54.456;9.752;2023-03-01T16:36:09;14.50;;;11.30;;
22441;SDS011;11388;54.456;9.752;2023-03-01T16:38:36;16.50;;;12.20;;
22441;SDS011;11388;54.456;9.752;2023-03-01T16:41:02;16.45;;;12.10;;
22441;SDS011;11388;54.456;9.752;2023-03-01T16:43:29;14.65;;;11.52;;
22441;SDS011;11388;54.456;9.752;2023-03-01T16:45:56;14.38;;;10.88;;